This is the latest recevied weather packets stored in our database for station/object BMCB-13. If no packets are shown the sender has not sent any weather packets the latest 10 day(s).
| Time | Temp. | Humidity | Pressure | Rain* | Wind** | Luminosity | Snow |
|---|---|---|---|---|---|---|---|
| 1777953645 | 12.22° C | 99% | 1008.9 hPa | 0 mm | - | 0 W/m² | - |
| 1777944644 | 12.22° C | 97% | 1009.5 hPa | 0 mm | - | 0 W/m² | - |
| 1777940444 | 12.78° C | 95% | 1010 hPa | 0 mm | - | 0 W/m² | - |
| 1777939247 | 12.78° C | 95% | 1010.1 hPa | 0 mm | - | 0 W/m² | - |
| 1777932047 | 12.78° C | 94% | 1011 hPa | 0 mm | - | 0 W/m² | - |
| 1777924853 | 13.33° C | 94% | 1011.4 hPa | 0 mm | - | 0 W/m² | - |
| 1777922449 | 13.89° C | 92% | 1011.2 hPa | 0 mm | - | 0 W/m² | - |
| 1777921850 | 13.89° C | 91% | 1011.2 hPa | 0 mm | - | 0 W/m² | - |
| 1777917049 | 14.44° C | 94% | 1011.1 hPa | 0 mm | - | 68 W/m² | - |
| 1777915250 | 13.89° C | 94% | 1011.2 hPa | 0.25 mm | - | 70 W/m² | - |
| 1777909249 | 13.89° C | 93% | 1011.7 hPa | 4.57 mm | - | 62 W/m² | - |
| 1777908645 | 13.89° C | 92% | 1011.7 hPa | 4.57 mm | - | 44 W/m² | - |
| 1777908046 | 15° C | 93% | 1011.6 hPa | 7.37 mm | - | 50 W/m² | - |
| 1777907446 | 15° C | 94% | 1011.6 hPa | 7.11 mm | - | 84 W/m² | - |
| 1777905646 | 15° C | 95% | 1011.7 hPa | 6.6 mm | - | 106 W/m² | - |
| 1777900846 | 17.22° C | 82% | 1011.9 hPa | 0 mm | - | 264 W/m² | - |
| 1777889444 | 16.11° C | 85% | 1012.4 hPa | 0 mm | - | 222 W/m² | - |
| 1777887046 | 16.11° C | 84% | 1012.5 hPa | 0 mm | - | 258 W/m² | - |
| 1777886448 | 16.11° C | 84% | 1012.4 hPa | 0 mm | - | 254 W/m² | - |
| 1777879842 | 16.11° C | 84% | 1011.8 hPa | 0 mm | - | 334 W/m² | - |
| 1777876847 | 14.44° C | 88% | 1011.7 hPa | 0 mm | - | 256 W/m² | - |
| 1777873244 | 11.11° C | 95% | 1011.5 hPa | 0 mm | - | 118 W/m² | - |
| 1777869046 | 11.11° C | 93% | 1011.1 hPa | 0 mm | - | 16 W/m² | - |
| 1777861244 | 11.67° C | 92% | 1010.8 hPa | 0 mm | - | 0 W/m² | - |
| 1777860044 | 11.67° C | 91% | 1010.8 hPa | 0 mm | - | 0 W/m² | - |
* Rain latest hour (hover to see other rain measurements)
** Current wind speed in m/s (hover to see current wind gust speed)